createdAt,value
2022-10-22T00:01:21.762Z,99.90
2022-10-22T00:03:48.664Z,99.90
2022-10-22T00:06:15.580Z,99.90
2022-10-22T00:08:42.743Z,99.90
2022-10-22T00:11:15.125Z,99.90
2022-10-22T00:13:42.896Z,99.90
2022-10-22T00:16:10.006Z,99.90
2022-10-22T00:18:37.405Z,99.90
2022-10-22T00:21:05.074Z,99.90
2022-10-22T00:23:32.024Z,99.90
2022-10-22T00:25:58.907Z,99.90
2022-10-22T00:28:25.845Z,99.90
2022-10-22T00:31:00.283Z,99.90
2022-10-22T00:33:28.570Z,99.90
2022-10-22T00:35:55.952Z,99.90
2022-10-22T00:38:22.838Z,99.90
2022-10-22T00:40:50.184Z,99.90
2022-10-22T00:43:19.702Z,99.90
2022-10-22T00:45:46.968Z,99.90
2022-10-22T00:48:19.330Z,99.90
2022-10-22T00:50:49.910Z,99.90
2022-10-22T00:53:23.431Z,99.90
2022-10-22T00:55:53.538Z,99.90
2022-10-22T00:58:24.387Z,99.90
2022-10-22T01:00:51.408Z,99.90
2022-10-22T01:03:18.444Z,99.90
2022-10-22T01:05:59.274Z,99.90
2022-10-22T01:08:52.184Z,99.90
2022-10-22T01:11:27.427Z,99.90
2022-10-22T01:14:42.487Z,99.90
2022-10-22T01:17:13.876Z,99.90
2022-10-22T01:20:13.234Z,99.90
2022-10-22T01:22:59.889Z,99.90
2022-10-22T01:25:43.127Z,99.90
2022-10-22T01:28:34.654Z,99.90
2022-10-22T01:31:03.528Z,99.90
2022-10-22T01:33:32.343Z,99.90
2022-10-22T01:36:00.243Z,99.90
2022-10-22T01:38:27.431Z,99.90
2022-10-22T01:40:55.625Z,99.90
2022-10-22T01:43:22.868Z,99.90
2022-10-22T01:45:54.524Z,99.90
2022-10-22T01:48:46.251Z,99.90
2022-10-22T01:51:22.141Z,99.90
2022-10-22T01:54:06.927Z,99.90
2022-10-22T01:56:36.253Z,99.90
2022-10-22T01:59:24.887Z,99.90
2022-10-22T02:01:59.787Z,99.90
2022-10-22T02:04:32.851Z,99.90
2022-10-22T02:07:03.398Z,99.90
2022-10-22T02:09:31.258Z,99.90
2022-10-22T02:12:01.454Z,99.90
2022-10-22T02:14:31.532Z,99.90
2022-10-22T02:16:59.590Z,99.90
2022-10-22T02:19:30.852Z,99.90
2022-10-22T02:21:57.765Z,99.90
2022-10-22T02:24:25.530Z,99.90
2022-10-22T02:27:07.360Z,99.90
2022-10-22T02:29:39.784Z,99.90
2022-10-22T02:32:09.805Z,99.90
2022-10-22T02:34:36.707Z,99.90
2022-10-22T02:37:04.521Z,99.90
2022-10-22T02:39:32.482Z,99.90
2022-10-22T02:42:02.065Z,99.90
2022-10-22T02:44:29.085Z,99.90
2022-10-22T02:46:56.211Z,99.90
2022-10-22T02:49:23.077Z,99.90
2022-10-22T02:51:50.008Z,99.90
2022-10-22T02:54:16.938Z,99.90
2022-10-22T02:56:43.879Z,99.90
2022-10-22T02:59:10.797Z,99.90
2022-10-22T03:01:37.680Z,99.90
2022-10-22T03:04:05.180Z,99.90
2022-10-22T03:06:32.100Z,99.90
2022-10-22T03:08:59.109Z,99.90
2022-10-22T03:11:26.101Z,99.90
2022-10-22T03:13:52.986Z,99.90
2022-10-22T03:16:19.937Z,99.90
2022-10-22T03:18:46.824Z,99.90
2022-10-22T03:21:31.215Z,99.90
2022-10-22T03:23:59.438Z,99.90
2022-10-22T03:26:26.512Z,99.90
2022-10-22T03:28:54.451Z,99.90
2022-10-22T03:31:21.351Z,99.90
2022-10-22T03:33:48.322Z,99.90
2022-10-22T03:36:15.338Z,99.90
2022-10-22T03:38:42.378Z,99.90
2022-10-22T03:41:10.034Z,99.90
2022-10-22T03:43:37.979Z,99.90
2022-10-22T03:46:05.079Z,99.90
2022-10-22T03:48:31.992Z,99.90
2022-10-22T03:50:58.953Z,99.90
2022-10-22T03:53:25.890Z,99.90
2022-10-22T03:55:52.768Z,99.90
2022-10-22T03:58:19.703Z,99.90
2022-10-22T04:00:46.630Z,99.90
2022-10-22T04:03:13.554Z,99.90
2022-10-22T04:05:40.472Z,99.90
2022-10-22T04:08:07.367Z,99.90
2022-10-22T04:10:34.374Z,99.90
2022-10-22T04:13:01.378Z,99.90
2022-10-22T04:15:29.169Z,99.90
2022-10-22T04:17:56.334Z,99.90
2022-10-22T04:20:23.270Z,99.90
2022-10-22T04:22:50.228Z,99.90
2022-10-22T04:25:17.178Z,99.90
2022-10-22T04:27:44.076Z,99.90
2022-10-22T04:30:11.495Z,99.90
2022-10-22T04:32:38.373Z,99.90
2022-10-22T04:35:05.615Z,99.90
2022-10-22T04:37:33.051Z,99.90
2022-10-22T04:40:00.078Z,99.90
2022-10-22T04:42:27.078Z,99.90
2022-10-22T04:44:53.996Z,99.90
2022-10-22T04:47:21.080Z,99.90
2022-10-22T04:49:47.946Z,99.90
2022-10-22T04:52:14.910Z,99.90
2022-10-22T04:54:42.021Z,99.90
2022-10-22T04:57:08.902Z,99.90
2022-10-22T04:59:35.857Z,99.90
2022-10-22T05:02:02.748Z,99.90
2022-10-22T05:04:29.668Z,99.90
2022-10-22T05:06:56.685Z,99.90
2022-10-22T05:09:23.646Z,99.90
2022-10-22T05:11:52.435Z,99.90
2022-10-22T05:14:22.480Z,99.90
2022-10-22T05:16:50.439Z,99.90
2022-10-22T05:19:26.828Z,99.90
2022-10-22T05:21:56.174Z,99.90
2022-10-22T05:24:23.371Z,99.90
2022-10-22T05:26:55.283Z,99.90
2022-10-22T05:29:23.163Z,99.90
2022-10-22T05:31:50.646Z,99.90
2022-10-22T05:34:17.941Z,99.90
2022-10-22T05:36:45.315Z,99.90
2022-10-22T05:39:12.901Z,99.90
2022-10-22T05:41:39.827Z,99.90
2022-10-22T05:44:06.746Z,99.90
2022-10-22T05:46:36.100Z,99.90
2022-10-22T05:49:06.600Z,99.90
2022-10-22T05:51:36.469Z,99.90
2022-10-22T05:54:05.835Z,99.90
2022-10-22T05:56:33.520Z,99.90
2022-10-22T05:59:04.479Z,99.90
2022-10-22T06:01:33.647Z,99.90
2022-10-22T06:04:03.773Z,99.90
2022-10-22T06:06:53.277Z,99.90
2022-10-22T06:09:27.550Z,99.90
2022-10-22T06:11:55.362Z,99.90
2022-10-22T06:14:22.876Z,99.90
2022-10-22T06:16:50.145Z,99.90
2022-10-22T06:19:19.575Z,99.90
2022-10-22T06:21:47.721Z,99.90
2022-10-22T06:24:15.237Z,99.90
2022-10-22T06:26:42.300Z,99.90
2022-10-22T06:29:09.874Z,99.90
2022-10-22T06:31:37.185Z,99.90
2022-10-22T06:34:08.655Z,99.90
2022-10-22T06:36:35.776Z,99.90
2022-10-22T06:39:04.126Z,99.90
2022-10-22T06:41:31.200Z,99.90
2022-10-22T06:43:58.516Z,99.90
2022-10-22T06:46:26.195Z,99.90
2022-10-22T06:48:57.626Z,99.90
2022-10-22T06:51:25.494Z,99.90
2022-10-22T06:53:53.055Z,99.90
2022-10-22T06:56:22.751Z,99.90
2022-10-22T06:58:54.547Z,99.90
2022-10-22T07:01:24.853Z,99.90
2022-10-22T07:03:53.160Z,99.90
2022-10-22T07:06:22.629Z,99.90
2022-10-22T07:08:49.744Z,99.90
2022-10-22T07:11:19.981Z,99.90
2022-10-22T07:13:47.773Z,99.90
2022-10-22T07:16:15.442Z,99.90
2022-10-22T07:18:44.008Z,99.90
2022-10-22T07:21:12.532Z,99.90
2022-10-22T07:23:39.679Z,99.90
2022-10-22T07:26:07.680Z,99.90
2022-10-22T07:28:38.110Z,99.90
2022-10-22T07:31:05.198Z,99.90
2022-10-22T07:33:32.338Z,99.90
2022-10-22T07:36:00.936Z,99.90
2022-10-22T07:38:29.026Z,99.90
2022-10-22T07:40:56.032Z,99.90
2022-10-22T07:43:23.125Z,99.90
2022-10-22T07:45:50.039Z,99.90
2022-10-22T07:48:17.477Z,99.90
2022-10-22T07:53:16.606Z,99.90
2022-10-22T07:55:43.482Z,99.90
2022-10-22T07:58:10.394Z,99.90
2022-10-22T08:00:37.850Z,99.90
2022-10-22T08:03:04.818Z,99.90
2022-10-22T08:08:07.303Z,99.90
2022-10-22T08:10:35.084Z,99.90
2022-10-22T08:13:02.423Z,99.90
2022-10-22T08:15:29.446Z,99.90
2022-10-22T08:17:56.302Z,99.90
2022-10-22T08:20:23.324Z,99.90
2022-10-22T08:22:50.330Z,99.90
2022-10-22T08:25:18.558Z,99.80
2022-10-22T08:27:46.165Z,99.90
2022-10-22T08:30:13.802Z,99.90
2022-10-22T08:32:41.975Z,99.20
2022-10-22T08:35:08.922Z,99.00
2022-10-22T08:37:36.217Z,99.50
2022-10-22T08:40:04.526Z,99.90
2022-10-22T08:42:37.548Z,98.30
2022-10-22T08:45:19.366Z,99.90
2022-10-22T08:48:06.831Z,99.90
2022-10-22T08:50:41.385Z,99.90
2022-10-22T08:53:17.704Z,99.90
2022-10-22T08:55:45.629Z,95.40
2022-10-22T08:58:20.509Z,92.90
2022-10-22T09:00:59.468Z,95.50
2022-10-22T09:04:17.334Z,98.90
2022-10-22T09:06:44.527Z,99.20
2022-10-22T09:09:18.435Z,97.80
2022-10-22T09:11:52.322Z,98.10
2022-10-22T09:14:24.598Z,93.30
2022-10-22T09:17:16.115Z,93.80
2022-10-22T09:20:09.395Z,92.60
2022-10-22T09:23:13.652Z,92.00
2022-10-22T09:25:41.792Z,94.80
2022-10-22T09:28:09.965Z,96.00
2022-10-22T09:30:38.721Z,95.80
2022-10-22T09:33:24.826Z,95.50
2022-10-22T09:36:03.535Z,96.00
2022-10-22T09:38:39.591Z,95.70
2022-10-22T09:41:06.939Z,94.00
2022-10-22T09:43:36.202Z,94.60
2022-10-22T09:46:06.501Z,96.20
2022-10-22T09:48:39.439Z,93.80
2022-10-22T09:51:25.630Z,91.10
2022-10-22T09:54:01.790Z,92.90
2022-10-22T09:56:41.847Z,93.30
2022-10-22T09:59:16.850Z,92.30
2022-10-22T10:01:44.747Z,91.40
2022-10-22T10:04:15.251Z,89.20
2022-10-22T10:06:44.439Z,84.20
2022-10-22T10:09:22.924Z,84.80
2022-10-22T10:12:02.721Z,81.70
2022-10-22T10:14:38.715Z,80.10
2022-10-22T10:17:12.023Z,81.40
2022-10-22T10:19:41.678Z,84.30
2022-10-22T10:22:25.354Z,86.10
2022-10-22T10:25:30.175Z,83.20
2022-10-22T10:28:21.415Z,82.20
2022-10-22T10:31:11.008Z,78.40
2022-10-22T10:34:00.637Z,74.00
2022-10-22T10:36:52.137Z,77.40
2022-10-22T10:39:24.074Z,73.30
2022-10-22T10:42:20.507Z,69.40
2022-10-22T10:45:05.871Z,71.40
2022-10-22T10:48:05.181Z,71.60
2022-10-22T10:50:37.853Z,67.80
2022-10-22T10:53:26.447Z,62.40
2022-10-22T10:56:27.853Z,63.90
2022-10-22T10:59:19.321Z,63.90
2022-10-22T11:02:10.121Z,63.00
2022-10-22T11:04:47.854Z,64.20
2022-10-22T11:07:33.582Z,64.20
2022-10-22T11:10:10.515Z,63.80
2022-10-22T11:12:42.593Z,64.40
2022-10-22T11:15:19.621Z,65.20
2022-10-22T11:17:48.926Z,64.80
2022-10-22T11:20:22.662Z,65.80
2022-10-22T11:23:18.307Z,64.50
2022-10-22T11:25:50.123Z,60.30
2022-10-22T11:28:32.599Z,62.10
2022-10-22T11:31:04.577Z,63.50
2022-10-22T11:33:46.059Z,61.70
2022-10-22T11:36:13.862Z,63.60
2022-10-22T11:38:41.462Z,64.80
2022-10-22T11:41:19.750Z,67.50
2022-10-22T11:44:23.284Z,69.10
2022-10-22T11:47:15.532Z,72.50
2022-10-22T11:49:55.574Z,75.30
2022-10-22T11:52:33.299Z,73.60
2022-10-22T11:55:24.032Z,71.40
2022-10-22T11:57:50.943Z,72.20
2022-10-22T12:00:39.917Z,71.60
2022-10-22T12:03:39.941Z,70.50
2022-10-22T12:06:12.771Z,70.90
2022-10-22T12:08:53.752Z,69.50
2022-10-22T12:11:24.835Z,64.40
2022-10-22T12:14:03.634Z,65.50
2022-10-22T12:16:58.040Z,68.00
2022-10-22T12:19:41.405Z,69.70
2022-10-22T12:22:16.882Z,71.40
2022-10-22T12:24:49.725Z,73.00
2022-10-22T12:27:36.272Z,72.00
2022-10-22T12:30:24.697Z,74.70
2022-10-22T12:32:57.342Z,65.70
2022-10-22T12:35:26.712Z,67.60
2022-10-22T12:37:56.948Z,65.30
2022-10-22T12:40:29.396Z,65.40
2022-10-22T12:42:57.589Z,68.00
2022-10-22T12:45:28.682Z,67.30
2022-10-22T12:48:04.596Z,70.80
2022-10-22T12:50:40.392Z,70.30
2022-10-22T12:53:22.542Z,70.00
2022-10-22T12:55:52.634Z,71.20
2022-10-22T12:58:22.872Z,68.90
2022-10-22T13:00:59.211Z,69.20
2022-10-22T13:03:40.534Z,67.90
2022-10-22T13:06:19.445Z,65.20
2022-10-22T13:08:59.254Z,65.50
2022-10-22T13:11:37.617Z,61.90
2022-10-22T13:14:06.716Z,61.70
2022-10-22T13:16:33.683Z,61.20
2022-10-22T13:19:00.643Z,60.10
2022-10-22T13:21:37.490Z,61.70
2022-10-22T13:24:21.446Z,61.80
2022-10-22T13:26:54.355Z,61.30
2022-10-22T13:29:23.504Z,61.10
2022-10-22T13:31:52.707Z,62.80
2022-10-22T13:34:25.115Z,64.70
2022-10-22T13:36:52.084Z,65.30
2022-10-22T13:39:21.124Z,65.80
2022-10-22T13:41:50.625Z,67.70
2022-10-22T13:44:20.382Z,70.10
2022-10-22T13:46:50.297Z,70.30
2022-10-22T13:49:23.540Z,71.20
2022-10-22T13:51:51.413Z,68.90
2022-10-22T13:54:21.812Z,70.30
2022-10-22T13:56:49.139Z,69.60
2022-10-22T13:59:18.470Z,70.10
2022-10-22T14:01:48.382Z,73.50
2022-10-22T14:04:15.661Z,80.80
2022-10-22T14:06:42.638Z,85.60
2022-10-22T14:09:15.215Z,88.80
2022-10-22T14:11:43.175Z,94.10
2022-10-22T14:14:14.207Z,92.20
2022-10-22T14:16:41.579Z,91.50
2022-10-22T14:19:15.158Z,89.60
2022-10-22T14:21:42.175Z,90.20
2022-10-22T14:24:13.152Z,85.00
2022-10-22T14:26:41.053Z,91.00
2022-10-22T14:29:10.204Z,88.50
2022-10-22T14:34:15.264Z,90.30
2022-10-22T14:36:45.533Z,78.60
2022-10-22T14:39:13.564Z,83.40
2022-10-22T14:41:41.262Z,83.70
2022-10-22T14:44:12.769Z,82.20
2022-10-22T14:46:42.755Z,88.90
2022-10-22T14:49:09.766Z,90.20
2022-10-22T14:51:36.634Z,92.00
2022-10-22T14:54:03.564Z,90.90
2022-10-22T14:56:30.478Z,92.80
2022-10-22T14:58:57.416Z,92.40
2022-10-22T15:01:24.404Z,91.80
2022-10-22T15:03:51.270Z,90.80
2022-10-22T15:06:18.153Z,86.10
2022-10-22T15:08:45.916Z,86.30
2022-10-22T15:11:13.427Z,80.90
2022-10-22T15:13:41.451Z,81.00
2022-10-22T15:16:10.947Z,79.00
2022-10-22T15:18:37.938Z,79.20
2022-10-22T15:21:13.198Z,76.90
2022-10-22T15:23:40.739Z,79.50
2022-10-22T15:26:09.100Z,77.40
2022-10-22T15:28:37.338Z,76.60
2022-10-22T15:31:04.732Z,80.70
2022-10-22T15:33:31.692Z,83.50
2022-10-22T15:35:59.089Z,82.60
2022-10-22T15:41:05.901Z,85.80
2022-10-22T15:43:33.974Z,87.70
2022-10-22T15:46:14.369Z,86.10
2022-10-22T15:48:41.745Z,90.30
2022-10-22T15:51:14.657Z,87.60
2022-10-22T15:53:41.630Z,85.20
2022-10-22T15:56:09.873Z,84.20
2022-10-22T15:58:36.789Z,85.60
2022-10-22T16:01:08.751Z,86.50
2022-10-22T16:03:35.956Z,87.00
2022-10-22T16:06:03.646Z,87.90
2022-10-22T16:08:31.325Z,89.60
2022-10-22T16:10:58.768Z,90.80
2022-10-22T16:13:26.698Z,93.00
2022-10-22T16:15:54.053Z,94.40
2022-10-22T16:18:21.714Z,92.50
2022-10-22T16:20:48.605Z,92.50
2022-10-22T16:23:18.893Z,92.50
2022-10-22T16:25:46.514Z,94.10
2022-10-22T16:28:13.764Z,95.50
2022-10-22T16:30:41.798Z,95.20
2022-10-22T16:33:09.954Z,94.80
2022-10-22T16:35:43.425Z,95.50
2022-10-22T16:38:11.092Z,98.00
2022-10-22T16:40:38.124Z,98.10
2022-10-22T16:43:05.259Z,99.10
2022-10-22T16:45:32.185Z,99.90
2022-10-22T16:47:59.115Z,99.90
2022-10-22T16:50:26.056Z,97.80
2022-10-22T16:52:52.966Z,96.70
2022-10-22T16:55:19.887Z,98.60
2022-10-22T16:57:51.793Z,99.30
2022-10-22T17:00:19.238Z,99.90
2022-10-22T17:02:50.554Z,99.90
2022-10-22T17:05:17.467Z,99.90
2022-10-22T17:07:44.383Z,99.90
2022-10-22T17:10:11.287Z,99.90
2022-10-22T17:12:38.364Z,99.90
2022-10-22T17:15:06.626Z,99.90
2022-10-22T17:17:34.200Z,99.90
2022-10-22T17:20:01.145Z,99.90
2022-10-22T17:22:28.083Z,99.90
2022-10-22T17:25:19.939Z,99.90
2022-10-22T17:27:46.857Z,99.90
2022-10-22T17:30:17.377Z,99.90
2022-10-22T17:32:44.342Z,99.90
2022-10-22T17:35:14.053Z,99.90
2022-10-22T17:37:41.201Z,99.90
2022-10-22T17:40:08.902Z,99.90
2022-10-22T17:42:35.873Z,99.90
2022-10-22T17:45:03.024Z,99.90
2022-10-22T17:47:29.976Z,99.90
2022-10-22T17:49:56.926Z,99.90
2022-10-22T17:52:23.914Z,99.90
2022-10-22T17:54:51.654Z,99.90
2022-10-22T17:57:18.611Z,99.90
2022-10-22T17:59:45.485Z,99.90
2022-10-22T18:02:17.467Z,99.90
2022-10-22T18:04:44.570Z,99.90
2022-10-22T18:07:11.960Z,99.90
2022-10-22T18:09:40.198Z,99.90
2022-10-22T18:12:07.603Z,99.90
2022-10-22T18:14:34.756Z,99.90
2022-10-22T18:17:02.809Z,99.90
2022-10-22T18:19:30.386Z,99.90
2022-10-22T18:21:57.282Z,99.90
2022-10-22T18:24:24.159Z,99.90
2022-10-22T18:26:51.200Z,99.90
2022-10-22T18:29:19.214Z,99.90
2022-10-22T18:31:46.845Z,99.90
2022-10-22T18:34:15.795Z,99.90
2022-10-22T18:36:44.741Z,99.90
2022-10-22T18:39:15.581Z,99.90
2022-10-22T18:41:43.398Z,99.90
2022-10-22T18:44:13.690Z,99.90
2022-10-22T18:46:40.875Z,99.90
2022-10-22T18:49:08.428Z,99.90
2022-10-22T18:51:36.115Z,99.90
2022-10-22T18:54:18.306Z,99.90
2022-10-22T18:56:49.007Z,99.90
2022-10-22T18:59:21.890Z,99.90
2022-10-22T19:01:49.151Z,99.90
2022-10-22T19:04:16.441Z,99.90
2022-10-22T19:06:45.725Z,99.90
2022-10-22T19:09:14.785Z,99.90
2022-10-22T19:11:42.379Z,99.90
2022-10-22T19:14:09.356Z,99.90
2022-10-22T19:16:37.672Z,99.90
2022-10-22T19:19:06.786Z,99.90
2022-10-22T19:21:35.467Z,99.90
2022-10-22T19:24:02.775Z,99.90
2022-10-22T19:26:30.589Z,99.90
2022-10-22T19:28:59.009Z,99.90
2022-10-22T19:31:27.209Z,99.90
2022-10-22T19:33:56.765Z,99.90
2022-10-22T19:36:25.328Z,99.90
2022-10-22T19:38:52.497Z,99.90
2022-10-22T19:41:22.058Z,99.90
2022-10-22T19:43:51.009Z,99.90
2022-10-22T19:46:18.886Z,99.90
2022-10-22T19:51:21.341Z,99.90
2022-10-22T19:53:49.562Z,99.90
2022-10-22T19:56:19.151Z,99.90
2022-10-22T19:58:46.335Z,99.90
2022-10-22T20:01:15.372Z,99.90
2022-10-22T20:03:42.315Z,99.90
2022-10-22T20:06:11.381Z,99.90
2022-10-22T20:08:39.319Z,99.90
2022-10-22T20:11:08.460Z,99.90
2022-10-22T20:13:35.769Z,99.90
2022-10-22T20:16:04.536Z,99.90
2022-10-22T20:18:34.220Z,99.90
2022-10-22T20:21:08.201Z,99.90
2022-10-22T20:23:35.518Z,99.90
2022-10-22T20:26:02.446Z,99.90
2022-10-22T20:28:29.443Z,99.90
2022-10-22T20:30:56.371Z,99.90
2022-10-22T20:33:23.360Z,99.90
2022-10-22T20:36:05.319Z,99.90
2022-10-22T20:38:32.333Z,99.90
2022-10-22T20:41:07.727Z,99.90
2022-10-22T20:43:34.682Z,99.90
2022-10-22T20:46:02.686Z,99.90
2022-10-22T20:48:31.433Z,99.90
2022-10-22T20:50:59.529Z,99.90
2022-10-22T20:53:26.938Z,99.90
2022-10-22T20:55:57.382Z,99.90
2022-10-22T20:58:26.727Z,99.90
2022-10-22T21:00:54.973Z,99.90
2022-10-22T21:03:22.065Z,99.90
2022-10-22T21:05:49.116Z,99.90
2022-10-22T21:08:18.928Z,99.90
2022-10-22T21:10:48.953Z,99.90
2022-10-22T21:13:19.221Z,99.90
2022-10-22T21:15:46.143Z,99.90
2022-10-22T21:18:13.080Z,99.90
2022-10-22T21:20:40.773Z,99.90
2022-10-22T21:23:08.727Z,99.90
2022-10-22T21:25:39.477Z,99.90
2022-10-22T21:28:08.950Z,99.90
2022-10-22T21:30:35.905Z,99.90
2022-10-22T21:33:02.781Z,99.90
2022-10-22T21:35:29.747Z,99.90
2022-10-22T21:37:56.609Z,99.90
2022-10-22T21:40:23.541Z,99.90
2022-10-22T21:42:51.195Z,99.90
2022-10-22T21:45:22.059Z,99.90
2022-10-22T21:47:49.466Z,99.90
2022-10-22T21:50:16.418Z,99.90
2022-10-22T21:52:43.327Z,99.90
2022-10-22T21:55:10.431Z,99.90
2022-10-22T21:57:37.405Z,99.90
2022-10-22T22:00:06.997Z,99.90
2022-10-22T22:02:34.035Z,99.90
2022-10-22T22:05:00.905Z,99.90
2022-10-22T22:07:27.852Z,99.90
2022-10-22T22:09:54.841Z,99.90
2022-10-22T22:12:21.780Z,99.90
2022-10-22T22:14:48.810Z,99.90
2022-10-22T22:17:16.639Z,99.90
2022-10-22T22:19:43.650Z,99.90
2022-10-22T22:22:10.888Z,99.90
2022-10-22T22:24:39.855Z,99.90
2022-10-22T22:27:07.386Z,99.90
2022-10-22T22:29:35.933Z,99.90
2022-10-22T22:32:02.898Z,99.90
2022-10-22T22:34:29.780Z,99.90
2022-10-22T22:36:56.739Z,99.90
2022-10-22T22:39:24.060Z,99.90
2022-10-22T22:41:51.341Z,99.90
2022-10-22T22:44:18.455Z,99.90
2022-10-22T22:46:45.400Z,99.90
2022-10-22T22:49:13.574Z,99.90
2022-10-22T22:51:40.488Z,99.90
2022-10-22T22:54:07.470Z,99.90
2022-10-22T22:56:34.856Z,99.90
2022-10-22T22:59:02.309Z,99.90
2022-10-22T23:01:38.395Z,99.90
2022-10-22T23:04:19.442Z,99.90
2022-10-22T23:06:46.476Z,99.90
2022-10-22T23:09:15.666Z,99.90
2022-10-22T23:11:44.553Z,99.90
2022-10-22T23:14:14.869Z,99.90
2022-10-22T23:16:46.162Z,99.90
2022-10-22T23:19:15.513Z,99.90
2022-10-22T23:21:46.729Z,99.90
2022-10-22T23:24:16.925Z,99.90
2022-10-22T23:26:46.268Z,99.90
2022-10-22T23:29:17.655Z,99.90
2022-10-22T23:31:45.854Z,99.90
2022-10-22T23:34:15.329Z,99.90
2022-10-22T23:36:42.420Z,99.90
2022-10-22T23:39:13.030Z,99.90
2022-10-22T23:41:39.993Z,99.90
2022-10-22T23:44:07.790Z,99.90
2022-10-22T23:46:35.151Z,99.90
2022-10-22T23:49:02.320Z,99.90
2022-10-22T23:51:29.254Z,99.90
2022-10-22T23:54:02.620Z,99.90
2022-10-22T23:56:30.582Z,99.90
2022-10-22T23:58:58.153Z,99.90
